sensor_id;sensor_type;location;lat;lon;timestamp;P1;durP1;ratioP1;P2;durP2;ratioP2
36221;SDS011;22266;52.340;4.962;2024-02-15T00:00:16;10.00;;;6.00;;
36221;SDS011;22266;52.340;4.962;2024-02-15T00:02:43;4.00;;;3.25;;
36221;SDS011;22266;52.340;4.962;2024-02-15T00:05:13;4.00;;;4.00;;
36221;SDS011;22266;52.340;4.962;2024-02-15T00:07:42;5.00;;;3.75;;
36221;SDS011;22266;52.340;4.962;2024-02-15T00:10:10;7.00;;;6.00;;
36221;SDS011;22266;52.340;4.962;2024-02-15T00:12:37;5.50;;;4.50;;
36221;SDS011;22266;52.340;4.962;2024-02-15T00:15:04;9.50;;;8.00;;
36221;SDS011;22266;52.340;4.962;2024-02-15T00:17:31;7.50;;;7.50;;
36221;SDS011;22266;52.340;4.962;2024-02-15T00:19:59;10.25;;;7.00;;
36221;SDS011;22266;52.340;4.962;2024-02-15T00:22:26;7.25;;;5.50;;
36221;SDS011;22266;52.340;4.962;2024-02-15T00:24:53;8.75;;;8.75;;
36221;SDS011;22266;52.340;4.962;2024-02-15T00:27:20;9.25;;;7.00;;
36221;SDS011;22266;52.340;4.962;2024-02-15T00:29:46;9.75;;;8.75;;
36221;SDS011;22266;52.340;4.962;2024-02-15T00:32:13;7.25;;;4.75;;
36221;SDS011;22266;52.340;4.962;2024-02-15T00:34:40;12.00;;;9.00;;
36221;SDS011;22266;52.340;4.962;2024-02-15T00:37:07;10.75;;;9.50;;
36221;SDS011;22266;52.340;4.962;2024-02-15T00:39:33;8.00;;;8.00;;
36221;SDS011;22266;52.340;4.962;2024-02-15T00:42:00;10.75;;;7.75;;
36221;SDS011;22266;52.340;4.962;2024-02-15T00:44:27;9.00;;;8.25;;
36221;SDS011;22266;52.340;4.962;2024-02-15T00:46:54;6.75;;;6.75;;
36221;SDS011;22266;52.340;4.962;2024-02-15T00:49:22;8.25;;;6.00;;
36221;SDS011;22266;52.340;4.962;2024-02-15T00:51:49;8.00;;;8.00;;
36221;SDS011;22266;52.340;4.962;2024-02-15T00:54:16;12.50;;;10.25;;
36221;SDS011;22266;52.340;4.962;2024-02-15T00:56:43;7.50;;;7.50;;
36221;SDS011;22266;52.340;4.962;2024-02-15T00:59:10;9.25;;;7.25;;
36221;SDS011;22266;52.340;4.962;2024-02-15T01:01:36;8.75;;;7.00;;
36221;SDS011;22266;52.340;4.962;2024-02-15T01:04:04;6.00;;;6.00;;
36221;SDS011;22266;52.340;4.962;2024-02-15T01:06:32;10.25;;;9.00;;
36221;SDS011;22266;52.340;4.962;2024-02-15T01:08:59;7.50;;;7.25;;
36221;SDS011;22266;52.340;4.962;2024-02-15T01:11:30;12.25;;;9.50;;
36221;SDS011;22266;52.340;4.962;2024-02-15T01:14:02;7.00;;;6.00;;
36221;SDS011;22266;52.340;4.962;2024-02-15T01:16:28;2.00;;;2.00;;
36221;SDS011;22266;52.340;4.962;2024-02-15T01:18:55;13.00;;;10.00;;
36221;SDS011;22266;52.340;4.962;2024-02-15T01:21:22;6.25;;;6.25;;
36221;SDS011;22266;52.340;4.962;2024-02-15T01:23:48;9.25;;;8.75;;
36221;SDS011;22266;52.340;4.962;2024-02-15T01:26:15;11.00;;;8.25;;
36221;SDS011;22266;52.340;4.962;2024-02-15T01:28:41;9.50;;;8.25;;
36221;SDS011;22266;52.340;4.962;2024-02-15T01:31:10;8.00;;;8.00;;
36221;SDS011;22266;52.340;4.962;2024-02-15T01:33:37;7.75;;;6.75;;
36221;SDS011;22266;52.340;4.962;2024-02-15T01:36:04;7.50;;;6.75;;
36221;SDS011;22266;52.340;4.962;2024-02-15T01:38:31;5.75;;;4.75;;
36221;SDS011;22266;52.340;4.962;2024-02-15T01:40:58;11.50;;;11.50;;
36221;SDS011;22266;52.340;4.962;2024-02-15T01:43:24;10.25;;;10.25;;
36221;SDS011;22266;52.340;4.962;2024-02-15T01:45:51;8.25;;;7.75;;
36221;SDS011;22266;52.340;4.962;2024-02-15T01:48:18;10.25;;;10.25;;
36221;SDS011;22266;52.340;4.962;2024-02-15T01:50:45;10.75;;;10.50;;
36221;SDS011;22266;52.340;4.962;2024-02-15T01:53:13;7.50;;;7.50;;
36221;SDS011;22266;52.340;4.962;2024-02-15T01:55:40;12.75;;;10.25;;
36221;SDS011;22266;52.340;4.962;2024-02-15T01:58:07;7.25;;;7.25;;
36221;SDS011;22266;52.340;4.962;2024-02-15T02:00:34;9.50;;;8.25;;
36221;SDS011;22266;52.340;4.962;2024-02-15T02:03:02;11.00;;;9.50;;
36221;SDS011;22266;52.340;4.962;2024-02-15T02:05:30;8.50;;;8.50;;
36221;SDS011;22266;52.340;4.962;2024-02-15T02:07:58;11.00;;;8.50;;
36221;SDS011;22266;52.340;4.962;2024-02-15T02:10:27;7.50;;;7.50;;
36221;SDS011;22266;52.340;4.962;2024-02-15T02:12:59;12.00;;;8.50;;
36221;SDS011;22266;52.340;4.962;2024-02-15T02:15:29;13.75;;;13.25;;
36221;SDS011;22266;52.340;4.962;2024-02-15T02:18:00;9.75;;;9.75;;
36221;SDS011;22266;52.340;4.962;2024-02-15T02:20:27;15.00;;;13.75;;
36221;SDS011;22266;52.340;4.962;2024-02-15T02:22:57;11.25;;;9.00;;
36221;SDS011;22266;52.340;4.962;2024-02-15T02:25:34;8.75;;;8.75;;
36221;SDS011;22266;52.340;4.962;2024-02-15T02:28:01;10.50;;;10.25;;
36221;SDS011;22266;52.340;4.962;2024-02-15T02:30:28;9.00;;;9.00;;
36221;SDS011;22266;52.340;4.962;2024-02-15T02:32:56;13.00;;;12.75;;
36221;SDS011;22266;52.340;4.962;2024-02-15T02:35:26;13.75;;;13.75;;
36221;SDS011;22266;52.340;4.962;2024-02-15T02:37:54;13.25;;;11.50;;
36221;SDS011;22266;52.340;4.962;2024-02-15T02:40:21;11.25;;;10.50;;
36221;SDS011;22266;52.340;4.962;2024-02-15T02:45:14;14.00;;;12.50;;
36221;SDS011;22266;52.340;4.962;2024-02-15T02:47:40;9.75;;;9.50;;
36221;SDS011;22266;52.340;4.962;2024-02-15T02:50:07;9.75;;;8.75;;
36221;SDS011;22266;52.340;4.962;2024-02-15T02:52:34;12.75;;;10.50;;
36221;SDS011;22266;52.340;4.962;2024-02-15T02:55:01;15.00;;;13.50;;
36221;SDS011;22266;52.340;4.962;2024-02-15T02:57:27;18.50;;;16.25;;
36221;SDS011;22266;52.340;4.962;2024-02-15T02:59:54;20.50;;;19.50;;
36221;SDS011;22266;52.340;4.962;2024-02-15T03:02:20;14.75;;;13.00;;
36221;SDS011;22266;52.340;4.962;2024-02-15T03:04:49;16.00;;;14.25;;
36221;SDS011;22266;52.340;4.962;2024-02-15T03:07:15;15.25;;;14.00;;
36221;SDS011;22266;52.340;4.962;2024-02-15T03:09:44;16.25;;;15.50;;
36221;SDS011;22266;52.340;4.962;2024-02-15T03:12:11;20.00;;;18.75;;
36221;SDS011;22266;52.340;4.962;2024-02-15T03:14:37;17.00;;;17.00;;
36221;SDS011;22266;52.340;4.962;2024-02-15T03:17:04;17.75;;;15.00;;
36221;SDS011;22266;52.340;4.962;2024-02-15T03:19:32;13.25;;;13.25;;
36221;SDS011;22266;52.340;4.962;2024-02-15T03:21:59;18.25;;;14.75;;
36221;SDS011;22266;52.340;4.962;2024-02-15T03:24:26;10.00;;;10.00;;
36221;SDS011;22266;52.340;4.962;2024-02-15T03:26:53;14.75;;;11.75;;
36221;SDS011;22266;52.340;4.962;2024-02-15T03:29:21;12.50;;;11.50;;
36221;SDS011;22266;52.340;4.962;2024-02-15T03:31:48;15.00;;;14.50;;
36221;SDS011;22266;52.340;4.962;2024-02-15T03:34:15;20.00;;;19.00;;
36221;SDS011;22266;52.340;4.962;2024-02-15T03:36:42;17.25;;;15.25;;
36221;SDS011;22266;52.340;4.962;2024-02-15T03:39:09;19.50;;;18.25;;
36221;SDS011;22266;52.340;4.962;2024-02-15T03:41:35;16.00;;;16.00;;
36221;SDS011;22266;52.340;4.962;2024-02-15T03:44:02;16.50;;;14.00;;
36221;SDS011;22266;52.340;4.962;2024-02-15T03:46:29;13.50;;;13.00;;
36221;SDS011;22266;52.340;4.962;2024-02-15T03:48:55;22.00;;;18.25;;
36221;SDS011;22266;52.340;4.962;2024-02-15T03:51:23;19.00;;;18.00;;
36221;SDS011;22266;52.340;4.962;2024-02-15T03:53:50;23.50;;;21.25;;
36221;SDS011;22266;52.340;4.962;2024-02-15T03:56:18;17.25;;;15.25;;
36221;SDS011;22266;52.340;4.962;2024-02-15T03:58:47;21.00;;;16.75;;
36221;SDS011;22266;52.340;4.962;2024-02-15T04:01:16;17.75;;;16.50;;
36221;SDS011;22266;52.340;4.962;2024-02-15T04:03:43;15.75;;;14.00;;
36221;SDS011;22266;52.340;4.962;2024-02-15T04:06:10;18.75;;;14.00;;
36221;SDS011;22266;52.340;4.962;2024-02-15T04:08:37;13.75;;;11.50;;
36221;SDS011;22266;52.340;4.962;2024-02-15T04:11:05;15.75;;;15.50;;
36221;SDS011;22266;52.340;4.962;2024-02-15T04:13:33;12.25;;;12.00;;
36221;SDS011;22266;52.340;4.962;2024-02-15T04:16:00;19.25;;;18.00;;
36221;SDS011;22266;52.340;4.962;2024-02-15T04:18:27;19.25;;;16.00;;
36221;SDS011;22266;52.340;4.962;2024-02-15T04:20:56;18.50;;;15.00;;
36221;SDS011;22266;52.340;4.962;2024-02-15T04:23:22;13.00;;;13.00;;
36221;SDS011;22266;52.340;4.962;2024-02-15T04:25:50;14.50;;;14.50;;
36221;SDS011;22266;52.340;4.962;2024-02-15T04:28:18;16.25;;;16.00;;
36221;SDS011;22266;52.340;4.962;2024-02-15T04:30:44;18.00;;;15.50;;
36221;SDS011;22266;52.340;4.962;2024-02-15T04:33:13;23.00;;;21.00;;
36221;SDS011;22266;52.340;4.962;2024-02-15T04:35:42;21.00;;;20.75;;
36221;SDS011;22266;52.340;4.962;2024-02-15T04:38:10;17.50;;;15.25;;
36221;SDS011;22266;52.340;4.962;2024-02-15T04:40:36;18.50;;;16.50;;
36221;SDS011;22266;52.340;4.962;2024-02-15T04:43:05;19.25;;;19.25;;
36221;SDS011;22266;52.340;4.962;2024-02-15T04:45:33;16.50;;;16.50;;
36221;SDS011;22266;52.340;4.962;2024-02-15T04:47:59;18.50;;;17.25;;
36221;SDS011;22266;52.340;4.962;2024-02-15T04:50:28;25.50;;;22.75;;
36221;SDS011;22266;52.340;4.962;2024-02-15T04:52:55;17.75;;;16.00;;
36221;SDS011;22266;52.340;4.962;2024-02-15T04:55:22;18.50;;;17.25;;
36221;SDS011;22266;52.340;4.962;2024-02-15T04:57:49;21.00;;;19.00;;
36221;SDS011;22266;52.340;4.962;2024-02-15T05:00:21;21.75;;;21.75;;
36221;SDS011;22266;52.340;4.962;2024-02-15T05:02:49;21.25;;;21.25;;
36221;SDS011;22266;52.340;4.962;2024-02-15T05:05:16;17.50;;;15.25;;
36221;SDS011;22266;52.340;4.962;2024-02-15T05:07:43;23.75;;;21.75;;
36221;SDS011;22266;52.340;4.962;2024-02-15T05:10:10;17.00;;;17.00;;
36221;SDS011;22266;52.340;4.962;2024-02-15T05:12:37;20.50;;;17.50;;
36221;SDS011;22266;52.340;4.962;2024-02-15T05:15:04;22.00;;;19.00;;
36221;SDS011;22266;52.340;4.962;2024-02-15T05:17:39;19.25;;;18.75;;
36221;SDS011;22266;52.340;4.962;2024-02-15T05:20:10;18.75;;;18.25;;
36221;SDS011;22266;52.340;4.962;2024-02-15T05:22:38;14.75;;;13.50;;
36221;SDS011;22266;52.340;4.962;2024-02-15T05:25:08;15.50;;;14.75;;
36221;SDS011;22266;52.340;4.962;2024-02-15T05:27:34;14.00;;;14.00;;
36221;SDS011;22266;52.340;4.962;2024-02-15T05:30:02;22.75;;;17.25;;
36221;SDS011;22266;52.340;4.962;2024-02-15T05:32:33;19.25;;;16.50;;
36221;SDS011;22266;52.340;4.962;2024-02-15T05:35:08;21.50;;;19.00;;
36221;SDS011;22266;52.340;4.962;2024-02-15T05:37:36;22.25;;;21.50;;
36221;SDS011;22266;52.340;4.962;2024-02-15T05:40:03;23.25;;;21.00;;
36221;SDS011;22266;52.340;4.962;2024-02-15T05:42:31;20.25;;;18.75;;
36221;SDS011;22266;52.340;4.962;2024-02-15T05:45:14;21.75;;;19.00;;
36221;SDS011;22266;52.340;4.962;2024-02-15T05:47:59;20.00;;;16.00;;
36221;SDS011;22266;52.340;4.962;2024-02-15T05:50:26;26.50;;;19.25;;
36221;SDS011;22266;52.340;4.962;2024-02-15T05:52:55;26.75;;;21.75;;
36221;SDS011;22266;52.340;4.962;2024-02-15T05:55:24;24.00;;;24.00;;
36221;SDS011;22266;52.340;4.962;2024-02-15T05:57:52;21.00;;;18.75;;
36221;SDS011;22266;52.340;4.962;2024-02-15T06:00:19;20.75;;;18.75;;
36221;SDS011;22266;52.340;4.962;2024-02-15T06:02:49;22.00;;;20.00;;
36221;SDS011;22266;52.340;4.962;2024-02-15T06:05:17;22.00;;;22.00;;
36221;SDS011;22266;52.340;4.962;2024-02-15T06:07:44;27.00;;;21.75;;
36221;SDS011;22266;52.340;4.962;2024-02-15T06:10:11;24.50;;;21.50;;
36221;SDS011;22266;52.340;4.962;2024-02-15T06:12:37;24.00;;;21.25;;
36221;SDS011;22266;52.340;4.962;2024-02-15T06:15:04;22.50;;;19.50;;
36221;SDS011;22266;52.340;4.962;2024-02-15T06:17:33;23.00;;;21.75;;
36221;SDS011;22266;52.340;4.962;2024-02-15T06:20:00;29.75;;;28.50;;
36221;SDS011;22266;52.340;4.962;2024-02-15T06:22:26;33.25;;;28.25;;
36221;SDS011;22266;52.340;4.962;2024-02-15T06:24:53;28.25;;;26.75;;
36221;SDS011;22266;52.340;4.962;2024-02-15T06:27:20;22.00;;;21.00;;
36221;SDS011;22266;52.340;4.962;2024-02-15T06:29:46;24.50;;;23.25;;
36221;SDS011;22266;52.340;4.962;2024-02-15T06:32:32;28.75;;;26.50;;
36221;SDS011;22266;52.340;4.962;2024-02-15T06:35:17;30.75;;;30.25;;
36221;SDS011;22266;52.340;4.962;2024-02-15T06:38:02;30.75;;;28.75;;
36221;SDS011;22266;52.340;4.962;2024-02-15T06:40:47;30.25;;;26.00;;
36221;SDS011;22266;52.340;4.962;2024-02-15T06:43:14;33.25;;;28.75;;
36221;SDS011;22266;52.340;4.962;2024-02-15T06:45:40;29.00;;;25.25;;
36221;SDS011;22266;52.340;4.962;2024-02-15T06:48:12;29.75;;;23.50;;
36221;SDS011;22266;52.340;4.962;2024-02-15T06:50:39;28.50;;;27.25;;
36221;SDS011;22266;52.340;4.962;2024-02-15T06:53:06;27.00;;;26.50;;
36221;SDS011;22266;52.340;4.962;2024-02-15T06:55:37;33.75;;;31.25;;
36221;SDS011;22266;52.340;4.962;2024-02-15T06:58:05;28.00;;;26.75;;
36221;SDS011;22266;52.340;4.962;2024-02-15T07:00:32;30.00;;;29.25;;
36221;SDS011;22266;52.340;4.962;2024-02-15T07:02:59;14.50;;;13.50;;
36221;SDS011;22266;52.340;4.962;2024-02-15T07:05:25;32.00;;;28.50;;
36221;SDS011;22266;52.340;4.962;2024-02-15T07:07:54;24.25;;;20.25;;
36221;SDS011;22266;52.340;4.962;2024-02-15T07:10:22;22.00;;;20.00;;
36221;SDS011;22266;52.340;4.962;2024-02-15T07:12:49;23.25;;;21.25;;
36221;SDS011;22266;52.340;4.962;2024-02-15T07:15:16;25.00;;;21.50;;
36221;SDS011;22266;52.340;4.962;2024-02-15T07:17:43;26.75;;;25.00;;
36221;SDS011;22266;52.340;4.962;2024-02-15T07:20:11;24.75;;;22.00;;
36221;SDS011;22266;52.340;4.962;2024-02-15T07:22:40;24.25;;;23.75;;
36221;SDS011;22266;52.340;4.962;2024-02-15T07:25:07;21.25;;;19.25;;
36221;SDS011;22266;52.340;4.962;2024-02-15T07:27:35;20.75;;;19.25;;
36221;SDS011;22266;52.340;4.962;2024-02-15T07:30:02;17.75;;;16.50;;
36221;SDS011;22266;52.340;4.962;2024-02-15T07:32:31;18.50;;;16.50;;
36221;SDS011;22266;52.340;4.962;2024-02-15T07:34:58;13.75;;;13.75;;
36221;SDS011;22266;52.340;4.962;2024-02-15T07:37:24;18.50;;;17.25;;
36221;SDS011;22266;52.340;4.962;2024-02-15T07:39:52;16.25;;;15.25;;
36221;SDS011;22266;52.340;4.962;2024-02-15T07:42:19;16.25;;;15.00;;
36221;SDS011;22266;52.340;4.962;2024-02-15T07:44:45;13.25;;;12.00;;
36221;SDS011;22266;52.340;4.962;2024-02-15T07:47:12;27.25;;;22.25;;
36221;SDS011;22266;52.340;4.962;2024-02-15T07:49:39;24.25;;;15.25;;
36221;SDS011;22266;52.340;4.962;2024-02-15T07:52:05;13.75;;;12.00;;
36221;SDS011;22266;52.340;4.962;2024-02-15T07:54:32;15.00;;;14.00;;
36221;SDS011;22266;52.340;4.962;2024-02-15T07:56:59;14.00;;;11.00;;
36221;SDS011;22266;52.340;4.962;2024-02-15T07:59:26;20.75;;;19.00;;
36221;SDS011;22266;52.340;4.962;2024-02-15T08:01:52;12.25;;;12.25;;
36221;SDS011;22266;52.340;4.962;2024-02-15T08:04:19;12.00;;;12.00;;
36221;SDS011;22266;52.340;4.962;2024-02-15T08:06:50;14.00;;;14.00;;
36221;SDS011;22266;52.340;4.962;2024-02-15T08:09:19;16.50;;;15.00;;
36221;SDS011;22266;52.340;4.962;2024-02-15T08:11:48;15.75;;;14.25;;
36221;SDS011;22266;52.340;4.962;2024-02-15T08:14:15;23.25;;;15.75;;
36221;SDS011;22266;52.340;4.962;2024-02-15T08:16:42;18.00;;;16.00;;
36221;SDS011;22266;52.340;4.962;2024-02-15T08:19:09;21.75;;;14.75;;
36221;SDS011;22266;52.340;4.962;2024-02-15T08:21:37;12.50;;;12.00;;
36221;SDS011;22266;52.340;4.962;2024-02-15T08:24:03;15.75;;;13.00;;
36221;SDS011;22266;52.340;4.962;2024-02-15T08:26:32;11.25;;;9.00;;
36221;SDS011;22266;52.340;4.962;2024-02-15T08:28:59;12.50;;;12.50;;
36221;SDS011;22266;52.340;4.962;2024-02-15T08:31:26;15.50;;;13.00;;
36221;SDS011;22266;52.340;4.962;2024-02-15T08:33:52;58.50;;;35.25;;
36221;SDS011;22266;52.340;4.962;2024-02-15T08:36:19;39.25;;;25.25;;
36221;SDS011;22266;52.340;4.962;2024-02-15T08:38:49;18.75;;;15.00;;
36221;SDS011;22266;52.340;4.962;2024-02-15T08:41:16;12.00;;;11.00;;
36221;SDS011;22266;52.340;4.962;2024-02-15T08:43:47;13.75;;;12.00;;
36221;SDS011;22266;52.340;4.962;2024-02-15T08:46:16;26.25;;;15.00;;
36221;SDS011;22266;52.340;4.962;2024-02-15T08:48:43;16.50;;;13.75;;
36221;SDS011;22266;52.340;4.962;2024-02-15T08:51:11;13.50;;;12.00;;
36221;SDS011;22266;52.340;4.962;2024-02-15T08:53:38;11.75;;;11.75;;
36221;SDS011;22266;52.340;4.962;2024-02-15T08:56:05;17.00;;;14.00;;
36221;SDS011;22266;52.340;4.962;2024-02-15T08:58:32;12.50;;;11.25;;
36221;SDS011;22266;52.340;4.962;2024-02-15T09:00:59;12.25;;;11.50;;
36221;SDS011;22266;52.340;4.962;2024-02-15T09:03:25;11.75;;;11.75;;
36221;SDS011;22266;52.340;4.962;2024-02-15T09:05:52;20.00;;;16.75;;
36221;SDS011;22266;52.340;4.962;2024-02-15T09:08:18;12.50;;;11.75;;
36221;SDS011;22266;52.340;4.962;2024-02-15T09:10:47;15.50;;;14.50;;
36221;SDS011;22266;52.340;4.962;2024-02-15T09:13:15;17.25;;;14.00;;
36221;SDS011;22266;52.340;4.962;2024-02-15T09:15:42;16.75;;;14.50;;
36221;SDS011;22266;52.340;4.962;2024-02-15T09:18:09;19.00;;;17.50;;
36221;SDS011;22266;52.340;4.962;2024-02-15T09:20:38;18.75;;;16.75;;
36221;SDS011;22266;52.340;4.962;2024-02-15T09:23:11;19.50;;;17.00;;
36221;SDS011;22266;52.340;4.962;2024-02-15T09:25:38;26.75;;;20.25;;
36221;SDS011;22266;52.340;4.962;2024-02-15T09:28:05;37.00;;;28.25;;
36221;SDS011;22266;52.340;4.962;2024-02-15T09:30:31;95.00;;;56.25;;
36221;SDS011;22266;52.340;4.962;2024-02-15T09:32:59;39.00;;;28.25;;
36221;SDS011;22266;52.340;4.962;2024-02-15T09:35:26;42.50;;;33.50;;
36221;SDS011;22266;52.340;4.962;2024-02-15T09:37:53;26.50;;;25.75;;
36221;SDS011;22266;52.340;4.962;2024-02-15T09:40:21;19.50;;;17.75;;
36221;SDS011;22266;52.340;4.962;2024-02-15T09:42:52;19.50;;;17.50;;
36221;SDS011;22266;52.340;4.962;2024-02-15T09:45:19;14.50;;;14.50;;
36221;SDS011;22266;52.340;4.962;2024-02-15T09:47:47;16.00;;;14.75;;
36221;SDS011;22266;52.340;4.962;2024-02-15T09:50:17;18.75;;;15.00;;
36221;SDS011;22266;52.340;4.962;2024-02-15T09:52:53;14.25;;;14.25;;
36221;SDS011;22266;52.340;4.962;2024-02-15T09:55:28;21.50;;;18.50;;
36221;SDS011;22266;52.340;4.962;2024-02-15T09:57:55;21.75;;;20.50;;
36221;SDS011;22266;52.340;4.962;2024-02-15T10:00:21;22.50;;;18.00;;
36221;SDS011;22266;52.340;4.962;2024-02-15T10:02:50;18.50;;;18.00;;
36221;SDS011;22266;52.340;4.962;2024-02-15T10:05:21;14.75;;;14.75;;
36221;SDS011;22266;52.340;4.962;2024-02-15T10:07:49;21.50;;;20.25;;
36221;SDS011;22266;52.340;4.962;2024-02-15T10:10:22;17.75;;;16.50;;
36221;SDS011;22266;52.340;4.962;2024-02-15T10:12:53;23.75;;;22.50;;
36221;SDS011;22266;52.340;4.962;2024-02-15T10:15:30;20.00;;;19.00;;
36221;SDS011;22266;52.340;4.962;2024-02-15T10:17:59;20.75;;;18.25;;
36221;SDS011;22266;52.340;4.962;2024-02-15T10:20:28;22.00;;;20.25;;
36221;SDS011;22266;52.340;4.962;2024-02-15T10:25:36;21.00;;;18.50;;
36221;SDS011;22266;52.340;4.962;2024-02-15T10:28:10;31.50;;;27.50;;
36221;SDS011;22266;52.340;4.962;2024-02-15T10:30:40;42.50;;;32.00;;
36221;SDS011;22266;52.340;4.962;2024-02-15T10:33:18;33.25;;;28.25;;
36221;SDS011;22266;52.340;4.962;2024-02-15T10:36:06;27.50;;;23.50;;
36221;SDS011;22266;52.340;4.962;2024-02-15T10:38:35;21.25;;;19.75;;
36221;SDS011;22266;52.340;4.962;2024-02-15T10:41:05;17.00;;;16.00;;
36221;SDS011;22266;52.340;4.962;2024-02-15T10:43:34;19.50;;;18.00;;
36221;SDS011;22266;52.340;4.962;2024-02-15T10:46:04;15.00;;;14.25;;
36221;SDS011;22266;52.340;4.962;2024-02-15T10:48:32;15.25;;;13.00;;
36221;SDS011;22266;52.340;4.962;2024-02-15T10:51:00;17.50;;;17.50;;
36221;SDS011;22266;52.340;4.962;2024-02-15T10:53:30;18.25;;;17.75;;
36221;SDS011;22266;52.340;4.962;2024-02-15T10:58:40;20.25;;;16.50;;
36221;SDS011;22266;52.340;4.962;2024-02-15T11:01:16;16.50;;;15.25;;
36221;SDS011;22266;52.340;4.962;2024-02-15T11:03:48;18.00;;;16.75;;
36221;SDS011;22266;52.340;4.962;2024-02-15T11:06:22;17.00;;;15.00;;
36221;SDS011;22266;52.340;4.962;2024-02-15T11:08:53;29.00;;;25.00;;
36221;SDS011;22266;52.340;4.962;2024-02-15T11:11:20;33.75;;;26.50;;
36221;SDS011;22266;52.340;4.962;2024-02-15T11:13:48;30.00;;;24.25;;
36221;SDS011;22266;52.340;4.962;2024-02-15T11:19:10;23.50;;;20.25;;
36221;SDS011;22266;52.340;4.962;2024-02-15T11:21:53;18.50;;;17.75;;
36221;SDS011;22266;52.340;4.962;2024-02-15T11:26:59;18.75;;;17.50;;
36221;SDS011;22266;52.340;4.962;2024-02-15T11:40:27;24.50;;;19.25;;
36221;SDS011;22266;52.340;4.962;2024-02-15T11:42:56;27.25;;;21.75;;
36221;SDS011;22266;52.340;4.962;2024-02-15T11:45:28;14.25;;;13.25;;
36221;SDS011;22266;52.340;4.962;2024-02-15T11:48:08;18.00;;;16.00;;
36221;SDS011;22266;52.340;4.962;2024-02-15T11:50:38;16.50;;;13.25;;
36221;SDS011;22266;52.340;4.962;2024-02-15T11:53:09;19.25;;;15.75;;
36221;SDS011;22266;52.340;4.962;2024-02-15T11:55:37;16.00;;;15.00;;
36221;SDS011;22266;52.340;4.962;2024-02-15T11:58:06;18.50;;;15.00;;
36221;SDS011;22266;52.340;4.962;2024-02-15T12:00:37;21.75;;;17.00;;
36221;SDS011;22266;52.340;4.962;2024-02-15T12:03:24;22.50;;;17.25;;
36221;SDS011;22266;52.340;4.962;2024-02-15T12:06:27;19.00;;;17.00;;
36221;SDS011;22266;52.340;4.962;2024-02-15T12:09:17;19.00;;;15.50;;
36221;SDS011;22266;52.340;4.962;2024-02-15T12:12:02;15.50;;;13.50;;
36221;SDS011;22266;52.340;4.962;2024-02-15T12:14:48;18.50;;;17.25;;
36221;SDS011;22266;52.340;4.962;2024-02-15T12:17:33;17.33;;;15.33;;
36221;SDS011;22266;52.340;4.962;2024-02-15T12:20:18;17.50;;;16.25;;
36221;SDS011;22266;52.340;4.962;2024-02-15T12:22:51;14.33;;;14.33;;
36221;SDS011;22266;52.340;4.962;2024-02-15T12:25:19;20.25;;;18.25;;
36221;SDS011;22266;52.340;4.962;2024-02-15T12:27:54;22.67;;;15.67;;
36221;SDS011;22266;52.340;4.962;2024-02-15T12:30:22;21.00;;;18.00;;
36221;SDS011;22266;52.340;4.962;2024-02-15T12:32:52;19.75;;;19.00;;
36221;SDS011;22266;52.340;4.962;2024-02-15T12:35:23;17.00;;;17.00;;
36221;SDS011;22266;52.340;4.962;2024-02-15T12:40:32;16.67;;;14.33;;
36221;SDS011;22266;52.340;4.962;2024-02-15T12:43:00;11.67;;;11.67;;
36221;SDS011;22266;52.340;4.962;2024-02-15T12:45:27;16.75;;;15.25;;
36221;SDS011;22266;52.340;4.962;2024-02-15T12:47:57;26.00;;;17.25;;
36221;SDS011;22266;52.340;4.962;2024-02-15T12:50:27;26.75;;;21.25;;
36221;SDS011;22266;52.340;4.962;2024-02-15T12:52:55;24.50;;;23.25;;
36221;SDS011;22266;52.340;4.962;2024-02-15T12:55:22;19.50;;;17.00;;
36221;SDS011;22266;52.340;4.962;2024-02-15T12:57:54;23.00;;;20.67;;
36221;SDS011;22266;52.340;4.962;2024-02-15T13:00:26;18.50;;;17.50;;
36221;SDS011;22266;52.340;4.962;2024-02-15T13:03:01;32.75;;;24.75;;
36221;SDS011;22266;52.340;4.962;2024-02-15T13:05:30;31.00;;;23.75;;
36221;SDS011;22266;52.340;4.962;2024-02-15T13:07:58;33.25;;;25.00;;
36221;SDS011;22266;52.340;4.962;2024-02-15T13:10:24;14.00;;;12.00;;
36221;SDS011;22266;52.340;4.962;2024-02-15T13:12:54;15.00;;;13.33;;
36221;SDS011;22266;52.340;4.962;2024-02-15T13:15:22;20.00;;;15.33;;
36221;SDS011;22266;52.340;4.962;2024-02-15T13:17:54;27.00;;;20.67;;
36221;SDS011;22266;52.340;4.962;2024-02-15T13:20:22;63.25;;;40.00;;
36221;SDS011;22266;52.340;4.962;2024-02-15T13:22:59;44.25;;;29.75;;
36221;SDS011;22266;52.340;4.962;2024-02-15T13:25:29;20.00;;;16.67;;
36221;SDS011;22266;52.340;4.962;2024-02-15T13:27:58;50.25;;;33.50;;
36221;SDS011;22266;52.340;4.962;2024-02-15T13:30:25;33.75;;;27.25;;
36221;SDS011;22266;52.340;4.962;2024-02-15T13:32:54;29.25;;;22.50;;
36221;SDS011;22266;52.340;4.962;2024-02-15T13:35:21;77.00;;;48.25;;
36221;SDS011;22266;52.340;4.962;2024-02-15T13:37:50;41.50;;;33.00;;
36221;SDS011;22266;52.340;4.962;2024-02-15T13:40:20;50.00;;;30.25;;
36221;SDS011;22266;52.340;4.962;2024-02-15T13:42:50;26.75;;;22.00;;
36221;SDS011;22266;52.340;4.962;2024-02-15T13:45:22;24.67;;;19.33;;
36221;SDS011;22266;52.340;4.962;2024-02-15T13:47:50;19.33;;;17.67;;
36221;SDS011;22266;52.340;4.962;2024-02-15T13:50:20;17.67;;;17.00;;
36221;SDS011;22266;52.340;4.962;2024-02-15T13:52:47;16.67;;;16.67;;
36221;SDS011;22266;52.340;4.962;2024-02-15T13:55:14;14.67;;;12.67;;
36221;SDS011;22266;52.340;4.962;2024-02-15T13:57:43;12.00;;;9.00;;
36221;SDS011;22266;52.340;4.962;2024-02-15T14:00:11;14.00;;;12.67;;
36221;SDS011;22266;52.340;4.962;2024-02-15T14:02:51;12.67;;;11.00;;
36221;SDS011;22266;52.340;4.962;2024-02-15T14:05:22;29.75;;;21.75;;
36221;SDS011;22266;52.340;4.962;2024-02-15T14:07:55;40.33;;;23.67;;
36221;SDS011;22266;52.340;4.962;2024-02-15T14:10:23;14.67;;;11.67;;
36221;SDS011;22266;52.340;4.962;2024-02-15T14:12:51;11.33;;;8.67;;
36221;SDS011;22266;52.340;4.962;2024-02-15T14:15:19;11.00;;;7.67;;
36221;SDS011;22266;52.340;4.962;2024-02-15T14:17:46;8.67;;;7.00;;
36221;SDS011;22266;52.340;4.962;2024-02-15T14:20:13;10.00;;;6.67;;
36221;SDS011;22266;52.340;4.962;2024-02-15T14:22:40;11.33;;;10.33;;
36221;SDS011;22266;52.340;4.962;2024-02-15T14:25:10;6.00;;;6.00;;
36221;SDS011;22266;52.340;4.962;2024-02-15T14:27:38;7.67;;;6.67;;
36221;SDS011;22266;52.340;4.962;2024-02-15T14:30:06;11.33;;;8.33;;
36221;SDS011;22266;52.340;4.962;2024-02-15T14:32:52;11.33;;;7.67;;
36221;SDS011;22266;52.340;4.962;2024-02-15T14:35:31;7.00;;;5.00;;
36221;SDS011;22266;52.340;4.962;2024-02-15T14:38:03;3.00;;;3.00;;
36221;SDS011;22266;52.340;4.962;2024-02-15T14:40:33;7.67;;;4.67;;
36221;SDS011;22266;52.340;4.962;2024-02-15T14:43:12;6.00;;;6.00;;
36221;SDS011;22266;52.340;4.962;2024-02-15T14:45:44;6.50;;;5.50;;
36221;SDS011;22266;52.340;4.962;2024-02-15T14:48:11;10.33;;;6.00;;
36221;SDS011;22266;52.340;4.962;2024-02-15T14:50:39;6.00;;;5.75;;
36221;SDS011;22266;52.340;4.962;2024-02-15T14:53:06;9.00;;;6.00;;
36221;SDS011;22266;52.340;4.962;2024-02-15T14:55:34;7.67;;;7.00;;
36221;SDS011;22266;52.340;4.962;2024-02-15T14:58:01;5.67;;;3.00;;
36221;SDS011;22266;52.340;4.962;2024-02-15T15:00:30;4.00;;;4.00;;
36221;SDS011;22266;52.340;4.962;2024-02-15T15:03:03;6.00;;;5.33;;